createdAt,value
2023-09-28T00:00:39.561Z,20.75
2023-09-28T00:03:08.784Z,20.75
2023-09-28T00:05:39.151Z,20.74
2023-09-28T00:08:09.093Z,20.74
2023-09-28T00:10:37.573Z,20.75
2023-09-28T00:13:06.909Z,20.73
2023-09-28T00:15:36.907Z,20.71
2023-09-28T00:18:06.754Z,20.72
2023-09-28T00:20:35.003Z,20.71
2023-09-28T00:23:05.565Z,20.71
2023-09-28T00:25:33.794Z,20.70
2023-09-28T00:28:03.070Z,20.70
2023-09-28T00:30:31.680Z,20.69
2023-09-28T00:33:02.655Z,20.68
2023-09-28T00:35:32.227Z,20.72
2023-09-28T00:38:01.495Z,20.72
2023-09-28T00:40:29.810Z,20.71
2023-09-28T00:42:59.106Z,20.72
2023-09-28T00:45:28.614Z,20.70
2023-09-28T00:48:03.790Z,20.69
2023-09-28T00:50:32.830Z,20.68
2023-09-28T00:53:07.975Z,20.68
2023-09-28T00:55:37.933Z,20.66
2023-09-28T00:58:08.111Z,20.64
2023-09-28T01:00:38.101Z,20.65
2023-09-28T01:03:10.788Z,20.64
2023-09-28T01:05:41.142Z,20.63
2023-09-28T01:08:12.890Z,20.60
2023-09-28T01:10:42.194Z,20.58
2023-09-28T01:13:13.595Z,20.58
2023-09-28T01:15:43.892Z,20.58
2023-09-28T01:18:17.446Z,20.57
2023-09-28T01:20:46.801Z,20.55
2023-09-28T01:23:17.748Z,20.56
2023-09-28T01:25:48.074Z,20.55
2023-09-28T01:28:19.141Z,20.53
2023-09-28T01:30:48.611Z,20.53
2023-09-28T01:33:18.034Z,20.53
2023-09-28T01:35:48.476Z,20.51
2023-09-28T01:38:25.774Z,20.49
2023-09-28T01:40:54.451Z,20.49
2023-09-28T01:43:23.671Z,20.48
2023-09-28T01:45:52.869Z,20.47
2023-09-28T01:48:21.322Z,20.48
2023-09-28T01:50:50.604Z,20.45
2023-09-28T01:53:21.531Z,20.45
2023-09-28T01:55:52.730Z,20.44
2023-09-28T01:58:21.041Z,20.43
2023-09-28T02:00:50.695Z,20.43
2023-09-28T02:03:18.966Z,20.42
2023-09-28T02:05:48.219Z,20.43
2023-09-28T02:08:16.715Z,20.42
2023-09-28T02:10:47.913Z,20.43
2023-09-28T02:13:16.110Z,20.42
2023-09-28T02:15:45.350Z,20.39
2023-09-28T02:18:15.259Z,20.39
2023-09-28T02:20:45.607Z,20.37
2023-09-28T02:23:15.120Z,20.36
2023-09-28T02:25:47.335Z,20.36
2023-09-28T02:28:15.591Z,20.36
2023-09-28T02:30:44.797Z,20.36
2023-09-28T02:33:13.102Z,20.35
2023-09-28T02:35:42.379Z,20.34
2023-09-28T02:38:10.794Z,20.33
2023-09-28T02:40:40.286Z,20.33
2023-09-28T02:43:09.940Z,20.35
2023-09-28T02:45:39.251Z,20.35
2023-09-28T02:48:07.674Z,20.34
2023-09-28T02:50:37.538Z,20.32
2023-09-28T02:53:08.390Z,20.30
2023-09-28T02:55:36.610Z,20.30
2023-09-28T02:58:06.345Z,20.31
2023-09-28T03:00:36.307Z,20.29
2023-09-28T03:03:06.329Z,20.28
2023-09-28T03:05:34.844Z,20.28
2023-09-28T03:08:05.866Z,20.26
2023-09-28T03:10:34.260Z,20.27
2023-09-28T03:13:04.638Z,20.33
2023-09-28T03:15:34.269Z,20.31
2023-09-28T03:18:06.848Z,20.29
2023-09-28T03:20:35.030Z,20.26
2023-09-28T03:23:05.373Z,20.26
2023-09-28T03:25:33.737Z,20.32
2023-09-28T03:28:03.266Z,20.31
2023-09-28T03:30:33.042Z,20.27
2023-09-28T03:33:02.539Z,20.26
2023-09-28T03:35:32.501Z,20.27
2023-09-28T03:38:01.881Z,20.32
2023-09-28T03:40:34.959Z,20.30
2023-09-28T03:43:04.763Z,20.30
2023-09-28T03:45:34.869Z,20.27
2023-09-28T03:48:04.249Z,20.28
2023-09-28T03:50:35.161Z,20.20
2023-09-28T03:53:06.395Z,20.19
2023-09-28T03:55:35.746Z,20.13
2023-09-28T03:58:05.260Z,20.15
2023-09-28T04:00:34.410Z,20.10
2023-09-28T04:03:03.947Z,20.16
2023-09-28T04:05:34.587Z,20.12
2023-09-28T04:08:03.983Z,20.11
2023-09-28T04:10:34.606Z,20.08
2023-09-28T04:13:03.907Z,20.09
2023-09-28T04:15:33.132Z,20.07
2023-09-28T04:18:02.820Z,20.08
2023-09-28T04:20:32.116Z,20.04
2023-09-28T04:23:08.221Z,20.05
2023-09-28T04:25:37.931Z,20.04
2023-09-28T04:28:07.511Z,20.07
2023-09-28T04:30:37.400Z,20.05
2023-09-28T04:33:07.011Z,20.02
2023-09-28T04:35:36.944Z,19.96
2023-09-28T04:38:08.665Z,20.03
2023-09-28T04:40:38.235Z,19.92
2023-09-28T04:43:07.448Z,19.95
2023-09-28T04:45:38.178Z,19.92
2023-09-28T04:48:07.514Z,19.93
2023-09-28T04:50:38.290Z,19.92
2023-09-28T04:53:08.942Z,20.00
2023-09-28T04:55:39.485Z,19.91
2023-09-28T04:58:09.694Z,19.92
2023-09-28T05:00:39.381Z,19.90
2023-09-28T05:03:08.579Z,19.89
2023-09-28T05:05:37.739Z,19.89
2023-09-28T05:08:09.692Z,19.86
2023-09-28T05:10:38.845Z,19.84
2023-09-28T05:13:07.989Z,19.84
2023-09-28T05:15:37.158Z,19.84
2023-09-28T05:18:06.788Z,19.85
2023-09-28T05:20:36.082Z,19.88
2023-09-28T05:23:06.220Z,19.84
2023-09-28T05:25:37.023Z,19.81
2023-09-28T05:28:07.044Z,19.79
2023-09-28T05:30:38.747Z,19.78
2023-09-28T05:33:08.278Z,19.75
2023-09-28T05:35:37.467Z,19.86
2023-09-28T05:38:07.256Z,19.77
2023-09-28T05:40:37.986Z,19.78
2023-09-28T05:43:07.242Z,19.75
2023-09-28T05:45:36.447Z,19.81
2023-09-28T05:48:06.356Z,19.73
2023-09-28T05:50:35.676Z,19.73
2023-09-28T05:53:05.203Z,19.76
2023-09-28T05:55:34.857Z,19.73
2023-09-28T05:58:06.175Z,19.71
2023-09-28T06:00:37.583Z,19.82
2023-09-28T06:03:07.037Z,19.76
2023-09-28T06:05:36.282Z,19.79
2023-09-28T06:08:07.443Z,19.83
2023-09-28T06:10:39.361Z,19.83
2023-09-28T06:13:10.260Z,19.83
2023-09-28T06:15:39.540Z,19.84
2023-09-28T06:18:08.786Z,19.85
2023-09-28T06:20:40.079Z,19.84
2023-09-28T06:23:11.149Z,19.85
2023-09-28T06:25:40.464Z,19.87
2023-09-28T06:28:11.128Z,19.86
2023-09-28T06:30:40.384Z,19.78
2023-09-28T06:33:09.655Z,19.80
2023-09-28T06:35:38.911Z,19.73
2023-09-28T06:38:08.188Z,19.77
2023-09-28T06:40:37.448Z,19.76
2023-09-28T06:43:07.234Z,19.79
2023-09-28T06:45:37.903Z,19.80
2023-09-28T06:48:19.448Z,19.78
2023-09-28T06:50:49.954Z,19.83
2023-09-28T06:53:19.451Z,19.80
2023-09-28T06:56:00.166Z,19.80
2023-09-28T06:58:37.299Z,19.82
2023-09-28T07:01:07.973Z,19.81
2023-09-28T07:03:37.380Z,19.81
2023-09-28T07:06:06.687Z,19.80
2023-09-28T07:08:36.116Z,19.80
2023-09-28T07:11:05.527Z,19.82
2023-09-28T07:13:35.524Z,19.81
2023-09-28T07:16:05.277Z,19.80
2023-09-28T07:18:36.611Z,19.81
2023-09-28T07:21:06.034Z,19.82
2023-09-28T07:23:35.705Z,19.84
2023-09-28T07:26:04.990Z,19.84
2023-09-28T07:28:34.264Z,19.84
2023-09-28T07:31:03.518Z,19.85
2023-09-28T07:33:32.869Z,19.86
2023-09-28T07:36:06.876Z,19.86
2023-09-28T07:38:36.153Z,19.87
2023-09-28T07:41:06.047Z,19.88
2023-09-28T07:43:35.344Z,19.88
2023-09-28T07:46:04.633Z,19.93
2023-09-28T07:48:33.807Z,19.93
2023-09-28T07:51:04.674Z,19.93
2023-09-28T07:53:34.205Z,19.94
2023-09-28T07:56:03.466Z,19.96
2023-09-28T07:58:34.457Z,19.98
2023-09-28T08:01:03.938Z,20.00
2023-09-28T08:03:33.159Z,20.00
2023-09-28T08:06:02.399Z,20.02
2023-09-28T08:08:33.346Z,20.05
2023-09-28T08:11:03.374Z,20.08
2023-09-28T08:13:32.913Z,20.09
2023-09-28T08:16:02.808Z,20.10
2023-09-28T08:18:32.378Z,20.12
2023-09-28T08:21:10.087Z,20.15
2023-09-28T08:23:42.840Z,20.18
2023-09-28T08:26:12.372Z,20.19
2023-09-28T08:28:41.543Z,20.21
2023-09-28T08:31:12.319Z,20.23
2023-09-28T08:33:41.508Z,20.26
2023-09-28T08:36:11.495Z,20.27
2023-09-28T08:38:42.128Z,20.29
2023-09-28T08:41:12.490Z,20.31
2023-09-28T08:43:51.549Z,20.32
2023-09-28T08:46:38.992Z,20.35
2023-09-28T08:49:15.590Z,20.37
2023-09-28T08:51:46.597Z,20.39
2023-09-28T08:54:20.519Z,20.39
2023-09-28T08:56:52.141Z,20.40
2023-09-28T08:59:23.529Z,20.43
2023-09-28T09:01:55.504Z,20.44
2023-09-28T09:04:25.114Z,20.43
2023-09-28T09:06:55.756Z,20.45
2023-09-28T09:09:26.474Z,20.46
2023-09-28T09:11:55.648Z,20.49
2023-09-28T09:14:30.187Z,20.51
2023-09-28T09:17:00.239Z,20.52
2023-09-28T09:19:32.610Z,20.53
2023-09-28T09:22:02.962Z,20.55
2023-09-28T09:24:33.689Z,20.54
2023-09-28T09:27:03.994Z,20.57
2023-09-28T09:29:33.219Z,20.59
2023-09-28T09:32:04.036Z,20.60
2023-09-28T09:34:33.452Z,20.61
2023-09-28T09:37:03.194Z,20.63
2023-09-28T09:39:33.772Z,20.64
2023-09-28T09:42:03.592Z,20.65
2023-09-28T09:44:32.795Z,20.66
2023-09-28T09:47:02.057Z,20.66
2023-09-28T09:49:32.028Z,20.68
2023-09-28T09:52:03.895Z,20.70
2023-09-28T09:54:39.626Z,20.70
2023-09-28T09:57:10.525Z,20.72
2023-09-28T09:59:48.028Z,20.72
2023-09-28T10:02:26.325Z,20.74
2023-09-28T10:04:56.879Z,20.75
2023-09-28T10:07:46.463Z,20.75
2023-09-28T10:10:20.248Z,20.75
2023-09-28T10:12:50.369Z,20.77
2023-09-28T10:15:20.576Z,20.77
2023-09-28T10:17:51.310Z,20.80
2023-09-28T10:20:21.049Z,20.82
2023-09-28T10:22:50.770Z,20.83
2023-09-28T10:25:21.773Z,20.83
2023-09-28T10:27:51.509Z,20.84
2023-09-28T10:30:23.608Z,20.85
2023-09-28T10:32:53.683Z,20.85
2023-09-28T10:35:28.491Z,20.85
2023-09-28T10:38:20.721Z,20.85
2023-09-28T10:41:05.323Z,20.84
2023-09-28T10:43:36.180Z,20.86
2023-09-28T10:46:06.513Z,20.86
2023-09-28T10:48:42.095Z,20.87
2023-09-28T10:51:14.555Z,20.87
2023-09-28T10:53:44.581Z,20.87
2023-09-28T10:56:15.274Z,20.87
2023-09-28T10:58:44.611Z,20.88
2023-09-28T11:01:14.036Z,20.88
2023-09-28T11:03:44.414Z,20.89
2023-09-28T11:06:14.165Z,20.89
2023-09-28T11:08:44.680Z,20.88
2023-09-28T11:11:16.382Z,20.88
2023-09-28T11:13:45.939Z,20.87
2023-09-28T11:16:15.274Z,20.88
2023-09-28T11:18:44.534Z,20.89
2023-09-28T11:21:13.831Z,20.87
2023-09-28T11:23:43.168Z,20.88
2023-09-28T11:26:12.926Z,20.88
2023-09-28T11:28:44.085Z,20.89
2023-09-28T11:31:16.025Z,20.88
2023-09-28T11:33:47.920Z,20.88
2023-09-28T11:36:19.677Z,20.89
2023-09-28T11:38:50.291Z,20.89
2023-09-28T11:41:20.016Z,20.89
2023-09-28T11:43:53.981Z,20.91
2023-09-28T11:46:24.772Z,20.90
2023-09-28T11:49:05.451Z,20.90
2023-09-28T11:51:35.972Z,20.91
2023-09-28T11:54:09.094Z,20.92
2023-09-28T11:56:38.481Z,20.91
2023-09-28T11:59:09.317Z,20.91
2023-09-28T12:01:38.586Z,20.91
2023-09-28T12:04:09.263Z,20.91
2023-09-28T12:06:39.905Z,20.92
2023-09-28T12:09:09.969Z,20.92
2023-09-28T12:11:40.535Z,20.92
2023-09-28T12:14:11.150Z,20.94
2023-09-28T12:16:46.618Z,20.96
2023-09-28T12:19:16.506Z,20.94
2023-09-28T12:21:46.726Z,20.94
2023-09-28T12:24:16.846Z,20.95
2023-09-28T12:26:46.530Z,20.97
2023-09-28T12:29:19.150Z,20.97
2023-09-28T12:31:49.082Z,20.98
2023-09-28T12:34:19.054Z,20.98
2023-09-28T12:36:48.348Z,20.98
2023-09-28T12:39:22.872Z,20.98
2023-09-28T12:41:52.617Z,20.99
2023-09-28T12:44:25.041Z,20.99
2023-09-28T12:46:54.491Z,20.99
2023-09-28T12:49:23.846Z,20.99
2023-09-28T12:51:53.229Z,20.99
2023-09-28T12:54:22.709Z,20.99
2023-09-28T12:59:22.465Z,21.00
2023-09-28T13:01:53.056Z,21.00
2023-09-28T13:04:22.453Z,21.01
2023-09-28T13:06:53.209Z,21.01
2023-09-28T13:09:23.238Z,21.01
2023-09-28T13:11:52.398Z,21.01
2023-09-28T13:14:27.491Z,21.01
2023-09-28T13:16:59.864Z,21.01
2023-09-28T13:19:29.451Z,21.01
2023-09-28T13:21:59.417Z,21.01
2023-09-28T13:24:31.780Z,21.02
2023-09-28T13:27:02.033Z,21.02
2023-09-28T13:29:31.284Z,21.02
2023-09-28T13:32:02.439Z,21.03
2023-09-28T13:34:31.871Z,21.04
2023-09-28T13:37:01.472Z,21.04
2023-09-28T13:39:31.708Z,21.05
2023-09-28T13:42:04.560Z,21.06
2023-09-28T13:44:35.401Z,21.06
2023-09-28T13:47:07.649Z,21.06
2023-09-28T13:49:36.996Z,21.06
2023-09-28T13:52:06.574Z,21.06
2023-09-28T13:54:36.720Z,21.07
2023-09-28T13:57:10.205Z,21.07
2023-09-28T13:59:39.678Z,21.07
2023-09-28T14:02:10.426Z,21.08
2023-09-28T14:04:39.658Z,21.08
2023-09-28T14:07:08.877Z,21.09
2023-09-28T14:09:38.087Z,21.09
2023-09-28T14:12:13.015Z,21.09
2023-09-28T14:14:43.179Z,21.09
2023-09-28T14:17:21.757Z,21.10
2023-09-28T14:20:01.498Z,21.11
2023-09-28T14:22:30.996Z,21.11
2023-09-28T14:25:00.189Z,21.11
2023-09-28T14:27:30.395Z,21.11
2023-09-28T14:29:59.834Z,21.13
2023-09-28T14:32:30.726Z,21.11
2023-09-28T14:35:00.704Z,21.13
2023-09-28T14:37:30.022Z,21.13
2023-09-28T14:39:59.251Z,21.13
2023-09-28T14:42:28.833Z,21.13
2023-09-28T14:44:58.270Z,21.13
2023-09-28T14:47:27.885Z,21.13
2023-09-28T14:50:03.524Z,21.13
2023-09-28T14:52:33.043Z,21.13
2023-09-28T14:55:03.038Z,21.14
2023-09-28T14:57:32.852Z,21.14
2023-09-28T15:00:02.474Z,21.13
2023-09-28T15:02:32.508Z,21.15
2023-09-28T15:05:03.275Z,21.12
2023-09-28T15:07:32.532Z,21.14
2023-09-28T15:10:05.650Z,21.17
2023-09-28T15:12:35.079Z,21.19
2023-09-28T15:15:04.907Z,21.19
2023-09-28T15:17:34.619Z,21.19
2023-09-28T15:20:10.448Z,21.20
2023-09-28T15:22:40.404Z,21.22
2023-09-28T15:25:10.773Z,21.22
2023-09-28T15:27:43.256Z,21.22
2023-09-28T15:30:15.190Z,21.25
2023-09-28T15:32:46.380Z,21.34
2023-09-28T15:35:17.304Z,21.46
2023-09-28T15:37:46.875Z,21.45
2023-09-28T15:40:17.816Z,21.45
2023-09-28T15:42:47.755Z,21.42
2023-09-28T15:45:17.837Z,21.38
2023-09-28T15:47:47.046Z,21.36
2023-09-28T15:50:17.747Z,21.34
2023-09-28T15:52:46.965Z,21.35
2023-09-28T15:55:16.176Z,21.36
2023-09-28T15:57:45.623Z,21.38
2023-09-28T16:00:30.721Z,21.37
2023-09-28T16:03:06.015Z,21.38
2023-09-28T16:05:37.137Z,21.38
2023-09-28T16:08:08.319Z,21.48
2023-09-28T16:10:37.654Z,21.71
2023-09-28T16:13:06.859Z,21.84
2023-09-28T16:15:36.192Z,21.89
2023-09-28T16:18:06.230Z,21.88
2023-09-28T16:20:37.020Z,21.96
2023-09-28T16:23:06.521Z,22.14
2023-09-28T16:25:35.755Z,22.23
2023-09-28T16:28:05.323Z,22.34
2023-09-28T16:30:34.536Z,22.31
2023-09-28T16:33:03.944Z,22.34
2023-09-28T16:35:33.371Z,22.44
2023-09-28T16:38:04.020Z,22.51
2023-09-28T16:40:33.731Z,22.56
2023-09-28T16:43:02.943Z,22.50
2023-09-28T16:45:32.131Z,22.47
2023-09-28T16:48:02.219Z,22.55
2023-09-28T16:50:32.809Z,22.65
2023-09-28T16:53:03.425Z,22.71
2023-09-28T16:55:33.002Z,22.73
2023-09-28T16:58:02.448Z,22.77
2023-09-28T17:00:31.705Z,22.70
2023-09-28T17:03:01.496Z,22.70
2023-09-28T17:05:30.847Z,22.78
2023-09-28T17:08:00.177Z,22.80
2023-09-28T17:10:30.749Z,22.82
2023-09-28T17:12:59.914Z,22.87
2023-09-28T17:15:30.828Z,22.89
2023-09-28T17:18:14.352Z,22.88
2023-09-28T17:20:49.569Z,22.90
2023-09-28T17:23:19.180Z,22.91
2023-09-28T17:25:51.179Z,22.98
2023-09-28T17:28:20.438Z,22.98
2023-09-28T17:30:49.698Z,22.97
2023-09-28T17:33:19.051Z,22.95
2023-09-28T17:35:48.292Z,22.91
2023-09-28T17:38:17.649Z,22.96
2023-09-28T17:40:46.854Z,22.99
2023-09-28T17:43:17.449Z,22.94
2023-09-28T17:45:48.870Z,22.87
2023-09-28T17:48:18.242Z,22.95
2023-09-28T17:50:47.469Z,23.01
2023-09-28T17:53:16.720Z,23.01
2023-09-28T17:55:48.116Z,23.01
2023-09-28T17:58:18.787Z,23.03
2023-09-28T18:00:49.415Z,23.05
2023-09-28T18:03:18.689Z,23.09
2023-09-28T18:05:48.197Z,23.06
2023-09-28T18:08:18.385Z,23.08
2023-09-28T18:10:48.528Z,23.08
2023-09-28T18:13:19.255Z,23.10
2023-09-28T18:15:50.143Z,23.13
2023-09-28T18:18:19.489Z,23.12
2023-09-28T18:20:49.101Z,23.08
2023-09-28T18:23:19.337Z,23.03
2023-09-28T18:25:50.371Z,22.99
2023-09-28T18:28:21.028Z,22.97
2023-09-28T18:30:52.323Z,22.95
2023-09-28T18:33:22.060Z,22.92
2023-09-28T18:35:51.443Z,22.91
2023-09-28T18:38:22.138Z,22.90
2023-09-28T18:40:52.264Z,22.91
2023-09-28T18:43:23.148Z,22.88
2023-09-28T18:45:55.921Z,22.86
2023-09-28T18:48:25.789Z,22.86
2023-09-28T18:50:55.344Z,22.78
2023-09-28T18:53:26.937Z,22.72
2023-09-28T18:55:56.484Z,22.67
2023-09-28T18:58:27.431Z,22.63
2023-09-28T19:00:57.038Z,22.58
2023-09-28T19:03:26.307Z,22.56
2023-09-28T19:05:56.770Z,22.53
2023-09-28T19:08:26.236Z,22.51
2023-09-28T19:10:58.391Z,22.47
2023-09-28T19:13:29.134Z,22.44
2023-09-28T19:15:58.496Z,22.41
2023-09-28T19:18:27.971Z,22.37
2023-09-28T19:20:57.419Z,22.36
2023-09-28T19:23:27.148Z,22.34
2023-09-28T19:25:58.942Z,22.31
2023-09-28T19:28:30.176Z,22.27
2023-09-28T19:31:00.420Z,22.26
2023-09-28T19:33:30.576Z,22.24
2023-09-28T19:35:59.984Z,22.20
2023-09-28T19:38:29.278Z,22.19
2023-09-28T19:41:01.478Z,22.17
2023-09-28T19:43:32.385Z,22.15
2023-09-28T19:46:02.107Z,22.13
2023-09-28T19:48:31.617Z,22.11
2023-09-28T19:51:01.481Z,22.10
2023-09-28T19:53:31.178Z,22.08
2023-09-28T19:56:01.340Z,22.09
2023-09-28T19:58:31.193Z,22.10
2023-09-28T20:01:04.203Z,22.05
2023-09-28T20:03:33.963Z,22.04
2023-09-28T20:06:04.172Z,22.03
2023-09-28T20:08:34.111Z,22.01
2023-09-28T20:11:03.364Z,21.98
2023-09-28T20:13:33.129Z,21.98
2023-09-28T20:16:05.941Z,21.96
2023-09-28T20:18:35.468Z,21.94
2023-09-28T20:21:05.880Z,21.93
2023-09-28T20:23:35.520Z,21.93
2023-09-28T20:26:05.270Z,21.89
2023-09-28T20:28:34.969Z,21.88
2023-09-28T20:31:07.449Z,21.87
2023-09-28T20:33:36.920Z,21.87
2023-09-28T20:36:06.660Z,21.84
2023-09-28T20:38:36.300Z,21.84
2023-09-28T20:41:06.818Z,21.83
2023-09-28T20:43:36.231Z,21.82
2023-09-28T20:46:06.902Z,21.81
2023-09-28T20:48:36.251Z,21.79
2023-09-28T20:51:05.714Z,21.83
2023-09-28T20:53:35.264Z,21.76
2023-09-28T20:56:05.117Z,21.67
2023-09-28T20:58:34.304Z,21.63
2023-09-28T21:01:10.938Z,21.61
2023-09-28T21:03:40.811Z,21.58
2023-09-28T21:06:11.581Z,21.55
2023-09-28T21:08:42.057Z,21.53
2023-09-28T21:11:20.706Z,21.50
2023-09-28T21:13:50.196Z,21.50
2023-09-28T21:16:22.192Z,21.47
2023-09-28T21:18:51.861Z,21.47
2023-09-28T21:21:21.387Z,21.45
2023-09-28T21:23:51.315Z,21.43
2023-09-28T21:26:20.975Z,21.40
2023-09-28T21:28:50.507Z,21.39
2023-09-28T21:31:21.537Z,21.39
2023-09-28T21:33:51.795Z,21.37
2023-09-28T21:36:22.682Z,21.35
2023-09-28T21:38:52.626Z,21.35
2023-09-28T21:41:22.192Z,21.34
2023-09-28T21:43:51.808Z,21.33
2023-09-28T21:46:26.656Z,21.29
2023-09-28T21:48:57.885Z,21.30
2023-09-28T21:51:27.254Z,21.28
2023-09-28T21:53:56.841Z,21.28
2023-09-28T21:56:26.806Z,21.26
2023-09-28T21:58:56.553Z,21.25
2023-09-28T22:01:28.283Z,21.24
2023-09-28T22:03:57.701Z,21.23
2023-09-28T22:06:27.464Z,21.22
2023-09-28T22:08:57.415Z,21.21
2023-09-28T22:11:26.950Z,21.18
2023-09-28T22:13:56.465Z,21.20
2023-09-28T22:16:27.446Z,21.19
2023-09-28T22:18:57.334Z,21.20
2023-09-28T22:21:26.801Z,21.17
2023-09-28T22:23:56.088Z,21.18
2023-09-28T22:26:25.595Z,21.17
2023-09-28T22:28:55.264Z,21.16
2023-09-28T22:31:24.692Z,21.15
2023-09-28T22:33:55.311Z,21.14
2023-09-28T22:36:24.576Z,21.13
2023-09-28T22:38:53.975Z,21.13
2023-09-28T22:41:23.413Z,21.10
2023-09-28T22:43:52.660Z,21.10
2023-09-28T22:46:21.895Z,21.09
2023-09-28T22:48:57.837Z,21.09
2023-09-28T22:51:28.614Z,21.08
2023-09-28T22:53:57.973Z,21.07
2023-09-28T22:56:27.282Z,21.07
2023-09-28T22:58:56.650Z,21.05
2023-09-28T23:01:26.057Z,21.06
2023-09-28T23:03:55.530Z,21.06
2023-09-28T23:06:24.877Z,21.05
2023-09-28T23:08:56.623Z,21.08
2023-09-28T23:11:26.173Z,21.06
2023-09-28T23:13:55.574Z,21.04
2023-09-28T23:16:24.928Z,21.02
2023-09-28T23:18:54.195Z,21.03
2023-09-28T23:21:23.512Z,21.02
2023-09-28T23:23:52.782Z,21.01
2023-09-28T23:26:24.565Z,21.00
2023-09-28T23:28:54.680Z,20.98
2023-09-28T23:31:24.859Z,20.97
2023-09-28T23:33:55.086Z,20.98
2023-09-28T23:36:28.409Z,20.96
2023-09-28T23:38:58.396Z,20.95
2023-09-28T23:41:29.012Z,20.93
2023-09-28T23:43:58.553Z,20.93
2023-09-28T23:46:27.712Z,20.91
2023-09-28T23:48:56.976Z,20.91
2023-09-28T23:51:26.178Z,20.91
2023-09-28T23:53:55.397Z,20.90
2023-09-28T23:56:24.948Z,20.89
2023-09-28T23:58:55.800Z,20.89
